Time;durP1;ratioP1;P1;durP2;ratioP2;P2;SDS_P1;SDS_P2;PMS_P1;PMS_P2;Temp;Humidity;BMP_temperature;BMP_pressure;BME280_temperature;BME280_humidity;BME280_pressure;Samples;Min_cycle;Max_cycle;Signal;HPM_P1;HPM_P2
2023/11/24 06:44:31;;;;;;;;;;;;;;;10.27;100.00;99357.19;6271319;22;19922;-89
2023/11/24 06:46:57;;;;;;;;;;;;;;;10.28;100.00;99366.84;6275745;22;19934;-89
2023/11/24 06:49:29;;;;;;;;;;;;;;;10.30;100.00;99374.72;6275792;22;19982;-89
2023/11/24 06:51:54;;;;;;;;;;;;;;;10.29;100.00;99379.19;6276248;22;19915;-91
2023/11/24 06:54:21;;;;;;;;;;;;;;;10.29;100.00;99379.19;6275810;22;19973;-82
2023/11/24 06:56:46;;;;;;;;;;;;;;;10.30;100.00;99375.56;6274005;22;20006;-85
2023/11/24 06:59:11;;;;;;;;;;;;;;;10.29;100.00;99371.22;6275610;22;19939;-84
2023/11/24 07:01:37;;;;;;;;;;;;;;;10.30;100.00;99370.28;6275428;22;19912;-83
2023/11/24 07:04:03;;;;;;;;;;;;;;;10.30;100.00;99372.94;6275451;22;20242;-82
2023/11/24 07:06:29;;;;;;;;;;;;;;;10.30;100.00;99370.28;6275323;22;19915;-84
2023/11/24 07:08:54;;;;;;;;;;;;;;;10.29;100.00;99368.59;6248884;22;19911;-82
2023/11/24 07:11:20;;;;;;;;;;;;;;;10.30;100.00;99367.63;6273755;22;19911;-82
2023/11/24 07:13:45;;;;;;;;;;;;;;;10.29;100.00;99363.28;6275587;22;19918;-82
2023/11/24 07:16:10;;;;;;;;;;;;;;;10.29;100.00;99355.34;6275554;22;19990;-81
2023/11/24 07:18:36;;;;;;;;;;;;;;;10.28;100.00;99353.63;6275635;22;19926;-82
2023/11/24 07:21:01;;;;;;;;;;;;;;;10.30;100.00;99348.25;6275513;22;19911;-82
2023/11/24 07:23:27;;;;;;;;;;;;;;;10.29;100.00;99355.34;6275540;22;20323;-83
2023/11/24 07:25:53;;;;;;;;;;;;;;;10.30;100.00;99357.03;6275484;22;19911;-79
2023/11/24 07:28:18;;;;;;;;;;;;;;;10.28;100.00;99356.25;6274143;22;19967;-87
2023/11/24 07:30:45;;;;;;;;;;;;;;;10.29;100.00;99360.63;6275579;22;19943;-83
2023/11/24 07:33:11;;;;;;;;;;;;;;;10.30;100.00;99362.34;6275503;22;19919;-83
2023/11/24 07:35:36;;;;;;;;;;;;;;;10.31;100.00;99366.72;6275447;22;19944;-83
2023/11/24 07:38:01;;;;;;;;;;;;;;;10.31;100.00;99360.56;6275519;22;19957;-82
2023/11/24 07:40:27;;;;;;;;;;;;;;;10.30;100.00;99351.75;6248195;22;19912;-82
2023/11/24 07:42:52;;;;;;;;;;;;;;;10.30;100.00;99349.09;6273726;22;19993;-83
2023/11/24 07:45:18;;;;;;;;;;;;;;;10.30;100.00;99359.69;6275365;22;19938;-83
2023/11/24 07:47:44;;;;;;;;;;;;;;;10.31;100.00;99363.22;6276504;22;19911;-83
2023/11/24 07:50:09;;;;;;;;;;;;;;;10.31;100.00;99364.06;6278281;22;19915;-82
2023/11/24 07:52:35;;;;;;;;;;;;;;;10.31;100.00;99361.41;6278502;22;19911;-82
2023/11/24 07:55:01;;;;;;;;;;;;;;;10.33;100.00;99361.38;6278298;22;19976;-86
2023/11/24 07:57:26;;;;;;;;;;;;;;;10.30;100.00;99359.69;6275592;22;19961;-84
2023/11/24 07:59:52;;;;;;;;;;;;;;;10.32;100.00;99357.88;6277178;22;19915;-84
2023/11/24 08:02:18;;;;;;;;;;;;;;;10.32;100.00;99360.53;6277220;22;19962;-84
2023/11/24 08:04:43;;;;;;;;;;;;;;;10.34;100.00;99356.00;6277301;22;19911;-83
2023/11/24 08:07:09;;;;;;;;;;;;;;;10.35;100.00;99359.50;6250374;22;20377;-84
2023/11/24 08:09:34;;;;;;;;;;;;;;;10.34;100.00;99356.00;6276967;22;19919;-84
2023/11/24 08:59:42;;;;;;;;;;;;;;;10.32;100.00;99294.31;6259620;22;20349;-89
2023/11/24 09:02:08;;;;;;;;;;;;;;;10.34;100.00;99278.34;6249751;22;19923;-89
2023/11/24 09:04:33;;;;;;;;;;;;;;;10.33;100.00;99274.81;6249904;22;19919;-88
2023/11/24 09:06:59;;;;;;;;;;;;;;;10.33;100.00;99266.03;6276495;22;19918;-89
2023/11/24 09:09:24;;;;;;;;;;;;;;;10.34;100.00;99258.03;6249649;22;19915;-83
2023/11/24 09:11:49;;;;;;;;;;;;;;;10.33;100.00;99253.66;6276570;22;19911;-86
2023/11/24 09:14:17;;;;;;;;;;;;;;;10.35;100.00;99254.44;6247991;22;19915;-87
2023/11/24 09:16:42;;;;;;;;;;;;;;;10.38;100.00;99256.06;6249309;22;19985;-87
2023/11/24 09:19:08;;;;;;;;;;;;;;;10.37;100.00;99251.72;6276557;22;20338;-88
2023/11/24 09:21:34;;;;;;;;;;;;;;;10.40;100.00;99256.00;6276460;22;20234;-88
2023/11/24 09:23:59;;;;;;;;;;;;;;;10.39;100.00;99259.56;6276468;22;19918;-88
2023/11/24 09:26:26;;;;;;;;;;;;;;;10.40;100.00;99256.84;6276557;22;19953;-88
2023/11/24 09:28:51;;;;;;;;;;;;;;;10.39;100.00;99255.16;6274597;22;19911;-88
2023/11/24 09:31:16;;;;;;;;;;;;;;;10.39;100.00;99252.50;6249638;22;19958;-87
2023/11/24 09:33:41;;;;;;;;;;;;;;;10.39;100.00;99243.66;6276322;22;19911;-86
2023/11/24 09:36:07;;;;;;;;;;;;;;;10.40;100.00;99245.41;6276230;22;19927;-87
2023/11/24 09:38:35;;;;;;;;;;;;;;;10.43;100.00;99245.25;6276313;22;19912;-88
2023/11/24 09:41:07;;;;;;;;;;;;;;;10.39;100.00;99233.94;6276166;22;19915;-87
2023/11/24 09:43:33;;;;;;;;;;;;;;;10.41;100.00;99231.22;6274545;22;20342;-86
2023/11/24 09:45:58;;;;;;;;;;;;;;;10.41;100.00;99244.47;6276123;22;19923;-87
2023/11/24 09:48:24;;;;;;;;;;;;;;;10.41;100.00;99236.53;6276116;22;19911;-87
2023/11/24 09:50:50;;;;;;;;;;;;;;;10.42;100.00;99235.56;6275859;22;20306;-90
2023/11/24 09:53:17;;;;;;;;;;;;;;;10.41;100.00;99233.88;6223751;22;19965;-87
2023/11/24 09:55:43;;;;;;;;;;;;;;;10.40;100.00;99222.41;6276044;22;19911;-87
2023/11/24 09:58:09;;;;;;;;;;;;;;;10.40;100.00;99224.22;6274667;22;20276;-84
2023/11/24 10:00:35;;;;;;;;;;;;;;;10.41;100.00;99220.63;6275885;22;20253;-86
2023/11/24 10:03:02;;;;;;;;;;;;;;;10.42;100.00;99232.91;6275914;22;20254;-84
2023/11/24 10:05:28;;;;;;;;;;;;;;;10.40;100.00;99229.50;6275953;22;20206;-84
2023/11/24 10:07:54;;;;;;;;;;;;;;;10.39;100.00;99225.13;6248785;22;19911;-84
2023/11/24 10:10:25;;;;;;;;;;;;;;;10.40;100.00;99208.31;6275665;22;19915;-86
2023/11/24 10:12:54;;;;;;;;;;;;;;;10.41;100.00;99205.59;6274186;22;19922;-87
2023/11/24 10:15:23;;;;;;;;;;;;;;;10.40;100.00;99197.72;6275969;22;19922;-84
2023/11/24 10:17:48;;;;;;;;;;;;;;;10.43;100.00;99194.91;6276065;22;19986;-84
2023/11/24 10:20:18;;;;;;;;;;;;;;;10.44;100.00;99188.69;6275861;22;19961;-85
2023/11/24 10:22:43;;;;;;;;;;;;;;;10.43;100.00;99176.38;6275836;22;20251;-85
2023/11/24 10:25:12;;;;;;;;;;;;;;;10.43;100.00;99171.94;6275883;22;19912;-84
2023/11/24 10:27:40;;;;;;;;;;;;;;;10.43;100.00;99161.34;6275146;22;20266;-85
2023/11/24 10:30:05;;;;;;;;;;;;;;;10.45;100.00;99169.19;6275287;22;19915;-86
2023/11/24 10:32:31;;;;;;;;;;;;;;;10.44;100.00;99165.72;6248162;22;20041;-87
2023/11/24 10:35:00;;;;;;;;;;;;;;;10.43;100.00;99147.25;6248764;22;20084;-91
2023/11/24 10:37:25;;;;;;;;;;;;;;;10.44;100.00;99146.31;6247719;22;19911;-87
2023/11/24 10:39:53;;;;;;;;;;;;;;;10.41;100.00;99136.72;6275716;22;19923;-85
2023/11/24 10:42:19;;;;;;;;;;;;;;;10.41;100.00;99123.50;6275794;22;19972;-84
2023/11/24 10:44:44;;;;;;;;;;;;;;;10.40;100.00;99135.00;6274210;22;19915;-86
2023/11/24 10:47:10;;;;;;;;;;;;;;;10.41;100.00;99127.94;6275637;22;19941;-85
2023/11/24 10:49:44;;;;;;;;;;;;;;;10.39;100.00;99127.16;6275993;22;19916;-85
2023/11/24 10:52:22;;;;;;;;;;;;;;;10.40;100.00;99108.53;6249010;22;19919;-86
2023/11/24 10:54:51;;;;;;;;;;;;;;;10.39;100.00;99100.66;6276148;22;20033;-87
2023/11/24 10:57:19;;;;;;;;;;;;;;;10.40;100.00;99097.09;6248966;22;19911;-87
2023/11/24 10:59:45;;;;;;;;;;;;;;;10.40;100.00;99089.16;6246677;22;20219;-86
2023/11/24 11:02:12;;;;;;;;;;;;;;;10.42;100.00;99088.13;6275677;22;19917;-86
2023/11/24 11:04:41;;;;;;;;;;;;;;;10.42;100.00;99084.63;6275639;22;20343;-85
2023/11/24 11:07:13;;;;;;;;;;;;;;;10.41;100.00;99088.22;6275454;22;19994;-87
2023/11/24 11:09:48;;;;;;;;;;;;;;;10.42;100.00;99081.97;6275545;22;19965;-86
2023/11/24 11:12:32;;;;;;;;;;;;;;;10.41;100.00;99078.47;6275363;22;20381;-84
2023/11/24 11:14:58;;;;;;;;;;;;;;;10.41;100.00;99078.47;6273889;22;20417;-84
2023/11/24 11:17:25;;;;;;;;;;;;;;;10.41;100.00;99077.63;6275560;22;19907;-87
2023/11/24 11:19:58;;;;;;;;;;;;;;;10.41;100.00;99069.69;6275498;22;19917;-85
2023/11/24 11:22:27;;;;;;;;;;;;;;;10.42;100.00;99068.72;6277588;22;19908;-85
2023/11/24 11:24:53;;;;;;;;;;;;;;;10.45;100.00;99074.72;6250452;22;19940;-85
2023/11/24 11:27:24;;;;;;;;;;;;;;;10.43;100.00;99070.44;6277481;22;20311;-85
2023/11/24 11:29:53;;;;;;;;;;;;;;;10.43;100.00;99065.16;6248914;22;19911;-85
2023/11/24 11:32:18;;;;;;;;;;;;;;;10.42;100.00;99069.59;6250346;22;19915;-85
2023/11/24 11:34:44;;;;;;;;;;;;;;;10.42;100.00;99079.31;6277380;22;20230;-86
2023/11/24 11:37:12;;;;;;;;;;;;;;;10.44;100.00;99065.06;6277249;22;19922;-88
2023/11/24 11:39:43;;;;;;;;;;;;;;;10.44;100.00;99053.63;6277350;22;19989;-85
2023/11/24 11:42:09;;;;;;;;;;;;;;;10.43;100.00;99057.19;6277315;22;19918;-89
2023/11/24 11:44:36;;;;;;;;;;;;;;;10.45;100.00;99060.63;6275767;22;19911;-86
2023/11/24 11:47:21;;;;;;;;;;;;;;;10.46;100.00;99054.38;6277504;22;19935;-87
2023/11/24 11:49:51;;;;;;;;;;;;;;;10.44;100.00;99056.28;6277254;22;19987;-87
2023/11/24 11:52:20;;;;;;;;;;;;;;;10.46;100.00;99049.09;6277237;22;19912;-85
2023/11/24 11:54:46;;;;;;;;;;;;;;;10.47;100.00;99040.22;6250177;22;20246;-86
2023/11/24 11:57:12;;;;;;;;;;;;;;;10.48;100.00;99044.56;6249931;22;20247;-84
2023/11/24 11:59:38;;;;;;;;;;;;;;;10.48;100.00;99041.91;6275339;22;19930;-84
2023/11/24 12:02:04;;;;;;;;;;;;;;;10.48;100.00;99041.91;6277218;22;19915;-85
2023/11/24 12:04:30;;;;;;;;;;;;;;;10.48;100.00;99041.91;6277077;22;19919;-84
2023/11/24 12:06:55;;;;;;;;;;;;;;;10.49;100.00;99039.19;6277089;22;19915;-85
2023/11/24 12:09:21;;;;;;;;;;;;;;;10.53;100.00;99024.00;6277388;22;19923;-83
2023/11/24 12:11:46;;;;;;;;;;;;;;;10.54;100.00;99038.94;6277148;22;19918;-83
2023/11/24 12:14:15;;;;;;;;;;;;;;;11.44;100.00;99032.13;6274857;22;19958;-89
2023/11/24 12:16:40;;;;;;;;;;;;;;;12.27;100.00;99027.19;6251033;22;19922;-86
2023/11/24 12:19:07;;;;;;;;;;;;;;;13.48;100.00;99017.66;6277324;22;19915;-86
2023/11/24 12:21:34;;;;;;;;;;;;;;;12.38;100.00;99026.53;6275787;22;19938;-90
2023/11/24 12:23:59;;;;;;;;;;;;;;;13.30;100.00;99017.06;6277107;22;20322;-85
2023/11/24 12:26:28;;;;;;;;;;;;;;;12.59;100.00;99031.41;6250709;22;19917;-92
2023/11/24 12:28:56;;;;;;;;;;;;;;;12.26;100.00;99029.94;6247909;22;19918;-84
2023/11/24 12:31:26;;;;;;;;;;;;;;;11.91;100.00;99019.63;6275963;22;19942;-89
2023/11/24 12:33:51;;;;;;;;;;;;;;;11.42;100.00;99023.38;6275996;22;19922;-83
2023/11/24 12:36:18;;;;;;;;;;;;;;;11.98;100.00;99015.66;6277115;22;19915;-83
2023/11/24 12:38:43;;;;;;;;;;;;;;;11.76;100.00;99024.06;6248983;22;19912;-84
2023/11/24 12:41:10;;;;;;;;;;;;;;;11.59;100.00;99025.06;6276370;22;19911;-82
2023/11/24 12:43:35;;;;;;;;;;;;;;;12.17;100.00;99020.72;6275574;22;19911;-84
2023/11/24 12:46:02;;;;;;;;;;;;;;;12.46;100.00;99002.97;6276394;22;19945;-85
2023/11/24 12:48:28;;;;;;;;;;;;;;;12.85;100.00;98996.03;6248326;22;19965;-85
2023/11/24 12:50:57;;;;;;;;;;;;;;;12.71;100.00;99002.25;6277191;22;20235;-84
2023/11/24 12:53:22;;;;;;;;;;;;;;;12.75;100.00;98994.94;6276667;22;19922;-85
2023/11/24 12:55:48;;;;;;;;;;;;;;;12.90;100.00;99004.56;6276783;22;19915;-84
2023/11/24 12:58:13;;;;;;;;;;;;;;;12.45;100.00;99005.72;6274464;22;19912;-84
2023/11/24 13:00:39;;;;;;;;;;;;;;;12.36;100.00;99007.16;6276130;22;20239;-82
2023/11/24 13:03:05;;;;;;;;;;;;;;;12.78;100.00;98994.75;6275757;22;20281;-84
2023/11/24 13:05:31;;;;;;;;;;;;;;;12.48;100.00;98998.41;6276307;22;19915;-84
2023/11/24 13:07:59;;;;;;;;;;;;;;;12.45;100.00;98998.59;6276142;22;19918;-84
2023/11/24 13:10:24;;;;;;;;;;;;;;;12.51;100.00;99008.84;6276451;22;19915;-84
2023/11/24 13:12:50;;;;;;;;;;;;;;;12.08;100.00;99026.59;6247101;22;20008;-83
2023/11/24 13:15:15;;;;;;;;;;;;;;;12.26;100.00;99014.00;6276381;22;19915;-83
2023/11/24 13:17:43;;;;;;;;;;;;;;;12.38;100.00;99018.56;6249456;22;19911;-84
2023/11/24 13:20:13;;;;;;;;;;;;;;;12.26;100.00;99019.31;6249274;22;19961;-84
2023/11/24 13:22:39;;;;;;;;;;;;;;;12.20;100.00;99028.50;6276606;22;19935;-86
2023/11/24 13:25:05;;;;;;;;;;;;;;;12.18;100.00;99028.59;6247844;22;20228;-89
2023/11/24 13:27:33;;;;;;;;;;;;;;;12.17;100.00;99018.94;6275608;22;19990;-82
2023/11/24 13:29:58;;;;;;;;;;;;;;;12.60;100.00;99002.06;6274463;22;19922;-85
2023/11/24 13:32:23;;;;;;;;;;;;;;;12.64;100.00;99008.06;6249716;22;19915;-88
2023/11/24 13:34:49;;;;;;;;;;;;;;;12.28;100.00;99012.09;6249441;22;19917;-84
2023/11/24 13:37:15;;;;;;;;;;;;;;;12.51;100.00;99008.84;6276293;22;19951;-85
2023/11/24 13:39:42;;;;;;;;;;;;;;;12.23;100.00;99004.41;6276333;22;19918;-84
2023/11/24 13:42:07;;;;;;;;;;;;;;;12.34;100.00;99017.88;6275755;22;19915;-84
2023/11/24 13:44:34;;;;;;;;;;;;;;;12.07;100.00;99014.28;6274852;22;19965;-80
2023/11/24 13:47:00;;;;;;;;;;;;;;;12.26;100.00;99014.00;6276379;22;19989;-85
2023/11/24 13:49:25;;;;;;;;;;;;;;;12.10;100.00;99014.94;6276183;22;20401;-86
2023/11/24 13:51:54;;;;;;;;;;;;;;;11.99;100.00;99012.91;6276271;22;19965;-83
2023/11/24 13:54:23;;;;;;;;;;;;;;;11.63;100.00;99018.59;6276013;22;19969;-84
2023/11/24 13:56:48;;;;;;;;;;;;;;;11.50;100.00;99015.81;6248933;22;19922;-85
2023/11/24 13:59:16;;;;;;;;;;;;;;;11.46;100.00;99024.94;6274458;22;19997;-84
2023/11/24 14:01:41;;;;;;;;;;;;;;;11.63;100.00;99013.31;6276479;22;19957;-84
2023/11/24 14:04:11;;;;;;;;;;;;;;;11.64;100.00;99020.31;6275955;22;20305;-83
2023/11/24 14:06:39;;;;;;;;;;;;;;;11.27;100.00;99028.63;6276066;22;19951;-86
2023/11/24 14:09:10;;;;;;;;;;;;;;;11.12;100.00;99026.00;6276302;22;19912;-84
2023/11/24 14:11:35;;;;;;;;;;;;;;;11.24;100.00;99027.97;6275905;22;19915;-86
2023/11/24 14:14:02;;;;;;;;;;;;;;;10.96;100.00;99031.34;6274389;22;20328;-84
2023/11/24 14:16:28;;;;;;;;;;;;;;;11.36;100.00;99044.97;6275922;22;19915;-83
2023/11/24 14:18:53;;;;;;;;;;;;;;;11.13;100.00;99054.25;6275881;22;19915;-85
2023/11/24 14:21:18;;;;;;;;;;;;;;;10.99;100.00;99062.97;6248667;22;19915;-88
2023/11/24 14:23:44;;;;;;;;;;;;;;;11.11;100.00;99064.09;6248631;22;19918;-82
2023/11/24 14:26:09;;;;;;;;;;;;;;;10.97;100.00;99065.69;6248400;22;19915;-82
2023/11/24 14:28:34;;;;;;;;;;;;;;;10.87;100.00;99056.56;6246987;22;19918;-83
2023/11/24 14:31:00;;;;;;;;;;;;;;;10.89;100.00;99057.34;6248675;22;19915;-86
2023/11/24 14:33:26;;;;;;;;;;;;;;;11.13;100.00;99047.13;6248632;22;19943;-85
2023/11/24 14:35:51;;;;;;;;;;;;;;;9.66;100.00;99037.38;6248923;22;19950;-89
2023/11/24 14:38:16;;;;;;;;;;;;;;;8.69;100.00;99045.59;6249934;22;19967;-89
2023/11/24 14:40:42;;;;;;;;;;;;;;;8.07;100.00;99031.66;6251428;22;19915;-89
2023/11/24 14:43:09;;;;;;;;;;;;;;;7.82;100.00;99043.31;6274357;22;20002;-88
2023/11/24 14:45:35;;;;;;;;;;;;;;;7.51;100.00;99044.59;6275901;22;20273;-89
2023/11/24 14:48:00;;;;;;;;;;;;;;;7.42;100.00;99045.84;6249682;22;19994;-88
2023/11/24 14:50:25;;;;;;;;;;;;;;;7.17;100.00;99050.44;6276396;22;19955;-87
2023/11/24 14:52:51;;;;;;;;;;;;;;;7.09;100.00;99048.09;6276978;22;19915;-85
2023/11/24 14:55:21;;;;;;;;;;;;;;;6.88;100.00;99049.81;6278335;22;20041;-95
2023/11/24 14:57:47;;;;;;;;;;;;;;;6.75;100.00;99045.94;6281093;22;19911;-90
2023/11/24 15:00:29;;;;;;;;;;;;;;;6.65;100.00;99048.06;6279676;22;19923;-86
2023/11/24 15:02:54;;;;;;;;;;;;;;;6.50;100.00;99057.41;6281213;22;19959;-93
2023/11/24 15:05:20;;;;;;;;;;;;;;;6.36;100.00;99048.25;6285624;22;19914;-96
2023/11/24 15:07:47;;;;;;;;;;;;;;;6.25;100.00;99055.69;6255398;22;19920;-96
2023/11/24 15:10:12;;;;;;;;;;;;;;;6.26;100.00;99051.28;6280777;22;19939;-92
2023/11/24 15:12:42;;;;;;;;;;;;;;;6.16;100.00;99051.63;6279541;22;20235;-94
2023/11/24 15:15:07;;;;;;;;;;;;;;;6.02;100.00;99045.16;6253267;22;19934;-95
2023/11/24 15:17:35;;;;;;;;;;;;;;;5.94;100.00;99056.75;6281198;22;20320;-91
2023/11/24 15:20:00;;;;;;;;;;;;;;;5.94;100.00;99050.66;6280020;22;20285;-91
2023/11/24 15:22:27;;;;;;;;;;;;;;;5.91;100.00;99048.97;6278970;22;19922;-93
2023/11/24 15:24:55;;;;;;;;;;;;;;;5.81;100.00;99055.50;6289519;22;19911;-85
2023/11/24 15:27:20;;;;;;;;;;;;;;;5.75;100.00;99055.69;6231170;22;19973;-93
2023/11/24 15:29:46;;;;;;;;;;;;;;;5.77;100.00;99065.22;6219464;23;19916;-94
2023/11/24 15:32:18;;;;;;;;;;;;;;;5.74;100.00;99070.59;6192457;23;19915;-87
2023/11/24 15:34:43;;;;;;;;;;;;;;;5.62;100.00;99066.63;6218703;23;19970;-96
2023/11/24 15:37:09;;;;;;;;;;;;;;;5.53;100.00;99068.72;6218475;23;19911;-90
2023/11/24 15:39:40;;;;;;;;;;;;;;;5.42;100.00;99066.44;6191949;23;19934;-92
2023/11/24 15:42:09;;;;;;;;;;;;;;;5.41;100.00;99062.13;6220174;23;19912;-92
2023/11/24 15:44:36;;;;;;;;;;;;;;;5.63;100.00;99068.34;6216618;23;20244;-92
2023/11/24 15:47:05;;;;;;;;;;;;;;;6.00;100.00;99067.09;6191454;23;19912;-91
2023/11/24 15:49:32;;;;;;;;;;;;;;;6.22;100.00;99087.34;6219089;23;19912;-91
2023/11/24 15:51:59;;;;;;;;;;;;;;;6.28;100.00;99086.28;6219452;23;20188;-90
2023/11/24 15:54:26;;;;;;;;;;;;;;;6.32;100.00;99094.03;6190902;23;19912;-89
2023/11/24 15:56:54;;;;;;;;;;;;;;;6.43;100.00;99091.00;6220000;23;19912;-92
2023/11/24 15:59:25;;;;;;;;;;;;;;;6.50;100.00;99089.84;6218224;23;20378;-83
2023/11/24 16:02:01;;;;;;;;;;;;;;;6.56;100.00;99086.13;6219492;23;19958;-87
2023/11/24 16:04:33;;;;;;;;;;;;;;;6.55;100.00;99089.69;6217768;23;19916;-89
2023/11/24 16:07:00;;;;;;;;;;;;;;;6.59;100.00;99096.56;6217220;23;19935;-89
2023/11/24 16:09:27;;;;;;;;;;;;;;;6.64;100.00;99091.13;6189957;23;19912;-90
2023/11/24 16:12:13;;;;;;;;;;;;;;;7.00;100.00;99090.59;6190037;23;19911;-91
2023/11/24 16:14:38;;;;;;;;;;;;;;;6.96;100.00;99103.03;6189215;23;19947;-89
2023/11/24 16:17:04;;;;;;;;;;;;;;;6.90;100.00;99105.91;6216819;23;19973;-92
2023/11/24 16:19:38;;;;;;;;;;;;;;;6.90;100.00;99113.81;6190437;23;20275;-91
2023/11/24 16:22:04;;;;;;;;;;;;;;;6.91;100.00;99108.47;6190981;23;19991;-88
2023/11/24 16:24:30;;;;;;;;;;;;;;;6.90;100.00;99113.81;6216924;23;20285;-91
2023/11/24 16:26:55;;;;;;;;;;;;;;;6.94;100.00;99114.53;6208786;23;19915;-87
2023/11/24 16:29:21;;;;;;;;;;;;;;;6.91;100.00;99113.75;6244488;23;19923;-95
2023/11/24 16:31:46;;;;;;;;;;;;;;;6.90;100.00;99114.66;6224143;23;19943;-88
2023/11/24 16:34:13;;;;;;;;;;;;;;;6.91;100.00;99123.44;6248237;23;19912;-89
2023/11/24 16:36:38;;;;;;;;;;;;;;;6.88;100.00;99118.28;6247260;23;19915;-93
2023/11/24 16:39:04;;;;;;;;;;;;;;;6.91;100.00;99128.72;6245222;23;19916;-93
2023/11/24 16:41:30;;;;;;;;;;;;;;;7.13;100.00;99130.50;6248483;23;20378;-88
2023/11/24 16:43:59;;;;;;;;;;;;;;;7.15;100.00;99137.44;6245332;23;20239;-90
2023/11/24 16:46:25;;;;;;;;;;;;;;;7.06;100.00;99130.72;6246846;23;19912;-90
2023/11/24 16:48:50;;;;;;;;;;;;;;;7.02;100.00;99136.16;6220746;23;19918;-91
2023/11/24 16:51:16;;;;;;;;;;;;;;;6.98;100.00;99137.22;6245848;23;19912;-90
2023/11/24 16:53:42;;;;;;;;;;;;;;;6.96;100.00;99137.28;6219162;23;19912;-88
2023/11/24 16:56:08;;;;;;;;;;;;;;;6.93;100.00;99132.13;6244256;23;19911;-88
2023/11/24 16:58:33;;;;;;;;;;;;;;;6.94;100.00;99133.84;6216880;23;19954;-90
2023/11/24 17:00:59;;;;;;;;;;;;;;;6.94;100.00;99141.75;6245563;23;20006;-88
2023/11/24 17:03:24;;;;;;;;;;;;;;;6.95;100.00;99140.81;6218611;23;19946;-83
2023/11/24 17:05:50;;;;;;;;;;;;;;;6.94;100.00;99133.84;6245950;23;19915;-85
2023/11/24 17:08:15;;;;;;;;;;;;;;;6.91;100.00;99139.25;6247150;23;19916;-86
2023/11/24 17:10:40;;;;;;;;;;;;;;;6.97;100.00;99135.50;6244915;23;20264;-87
2023/11/24 17:13:06;;;;;;;;;;;;;;;6.92;100.00;99122.50;6243594;23;19911;-88
2023/11/24 17:15:31;;;;;;;;;;;;;;;6.92;100.00;99125.13;6245303;23;20280;-88
2023/11/24 17:17:57;;;;;;;;;;;;;;;6.93;100.00;99132.13;6244362;23;19911;-82
2023/11/24 17:20:23;;;;;;;;;;;;;;;6.89;100.00;99135.78;6245754;23;19930;-86
2023/11/24 17:22:50;;;;;;;;;;;;;;;6.88;100.00;99134.94;6217113;23;19915;-81
2023/11/24 17:25:16;;;;;;;;;;;;;;;6.90;100.00;99142.78;6245439;23;19914;-92
2023/11/24 17:27:41;;;;;;;;;;;;;;;6.87;100.00;99140.25;6244541;23;19920;-86
2023/11/24 17:30:07;;;;;;;;;;;;;;;6.86;100.00;99139.41;6246037;23;19911;-85
2023/11/24 17:32:32;;;;;;;;;;;;;;;6.86;100.00;99131.50;6245549;23;19911;-88
2023/11/24 17:35:05;;;;;;;;;;;;;;;6.89;100.00;99127.88;6247340;23;19934;-94
2023/11/24 17:37:31;;;;;;;;;;;;;;;6.90;100.00;99127.81;6248065;23;19907;-91
2023/11/24 17:39:56;;;;;;;;;;;;;;;6.88;100.00;99132.31;6246687;23;20348;-91
2023/11/24 17:42:21;;;;;;;;;;;;;;;6.87;100.00;99129.72;6246605;23;20316;-94
2023/11/24 17:44:47;;;;;;;;;;;;;;;6.89;100.00;99130.50;6244528;23;19907;-87
2023/11/24 17:47:12;;;;;;;;;;;;;;;6.88;100.00;99119.13;6246313;23;19922;-91
2023/11/24 17:49:37;;;;;;;;;;;;;;;6.90;100.00;99122.56;6249567;23;20283;-89
2023/11/24 17:52:03;;;;;;;;;;;;;;;6.93;100.00;99124.22;6248469;23;19987;-89
2023/11/24 17:54:28;;;;;;;;;;;;;;;6.86;100.00;99125.38;6247795;23;19922;-86
2023/11/24 17:56:54;;;;;;;;;;;;;;;6.87;100.00;99127.09;6220596;23;19947;-94
2023/11/24 17:59:20;;;;;;;;;;;;;;;6.89;100.00;99127.88;6217580;23;19918;-90
2023/11/24 18:01:45;;;;;;;;;;;;;;;6.90;100.00;99135.72;6218650;23;20320;-89
2023/11/24 18:04:10;;;;;;;;;;;;;;;6.88;100.00;99126.19;6245367;23;19918;-94
2023/11/24 18:06:36;;;;;;;;;;;;;;;6.85;100.00;99132.41;6247184;23;19916;-88
2023/11/24 18:09:01;;;;;;;;;;;;;;;6.86;100.00;99142.03;6245626;23;20391;-89
2023/11/24 18:11:39;;;;;;;;;;;;;;;6.86;100.00;99138.53;6218516;23;20221;-84
2023/11/24 18:14:05;;;;;;;;;;;;;;;6.83;100.00;99136.91;6244216;23;19938;-86
2023/11/24 18:16:35;;;;;;;;;;;;;;;6.89;100.00;99130.50;6245853;23;19919;-92
2023/11/24 18:19:00;;;;;;;;;;;;;;;6.82;100.00;99126.41;6245221;23;20335;-91
2023/11/24 18:21:26;;;;;;;;;;;;;;;6.86;100.00;99125.38;6244045;23;19978;-94
2023/11/24 18:23:51;;;;;;;;;;;;;;;6.86;100.00;99131.50;6244945;23;19939;-86
2023/11/24 18:26:18;;;;;;;;;;;;;;;6.84;100.00;99138.59;6244721;23;19923;-91
2023/11/24 18:28:55;;;;;;;;;;;;;;;6.85;100.00;99134.19;6244375;23;19918;-96
2023/11/24 18:31:20;;;;;;;;;;;;;;;6.88;100.00;99134.09;6245333;23;19911;-93
2023/11/24 18:33:46;;;;;;;;;;;;;;;6.85;100.00;99135.06;6246180;23;19911;-90
2023/11/24 18:36:11;;;;;;;;;;;;;;;6.86;100.00;99141.16;6245251;23;19912;-88
2023/11/24 18:38:39;;;;;;;;;;;;;;;6.82;100.00;99142.22;6248059;23;19985;-94
2023/11/24 18:41:04;;;;;;;;;;;;;;;6.86;100.00;99151.69;6246661;23;20217;-88
2023/11/24 18:43:30;;;;;;;;;;;;;;;6.85;100.00;99145.59;6216516;23;19922;-88
2023/11/24 18:46:02;;;;;;;;;;;;;;;6.86;100.00;99141.16;6246301;23;19982;-88
2023/11/24 18:48:27;;;;;;;;;;;;;;;6.86;100.00;99136.78;6244927;23;20026;-92
2023/11/24 18:50:52;;;;;;;;;;;;;;;6.88;100.00;99134.09;6245882;23;20362;-90
2023/11/24 18:53:17;;;;;;;;;;;;;;;6.86;100.00;99136.78;6217396;23;19915;-89
2023/11/24 18:55:43;;;;;;;;;;;;;;;6.89;100.00;99138.41;6244057;23;19991;-85
2023/11/24 18:58:09;;;;;;;;;;;;;;;6.90;100.00;99151.53;6243919;23;19919;-87
2023/11/24 19:00:35;;;;;;;;;;;;;;;6.88;100.00;99145.47;6217935;23;20298;-88
2023/11/24 19:03:04;;;;;;;;;;;;;;;6.93;100.00;99149.72;6243216;23;19935;-88
2023/11/24 19:05:30;;;;;;;;;;;;;;;6.89;100.00;99143.69;6245553;23;19994;-90
2023/11/24 19:07:55;;;;;;;;;;;;;;;7.65;100.00;99138.94;6220235;23;20269;-88
2023/11/24 19:10:21;;;;;;;;;;;;;;;7.33;100.00;99133.19;6244896;23;19912;-86
2023/11/24 19:12:55;;;;;;;;;;;;;;;7.00;100.00;99148.56;6216759;23;19912;-94
2023/11/24 19:15:21;;;;;;;;;;;;;;;6.89;100.00;99141.06;6247074;23;19911;-88
2023/11/24 19:18:01;;;;;;;;;;;;;;;6.86;100.00;99135.91;6213157;23;20014;-96
2023/11/24 19:20:27;;;;;;;;;;;;;;;6.82;100.00;99143.06;6244952;23;20014;-88
2023/11/24 19:22:52;;;;;;;;;;;;;;;6.85;100.00;99142.09;6244932;23;19939;-90
2023/11/24 19:25:19;;;;;;;;;;;;;;;6.83;100.00;99151.81;6247739;23;19990;-87
2023/11/24 19:27:44;;;;;;;;;;;;;;;6.82;100.00;99142.22;6246627;23;19973;-88
2023/11/24 19:30:10;;;;;;;;;;;;;;;6.81;100.00;99148.38;6243456;23;19919;-84
2023/11/24 19:32:41;;;;;;;;;;;;;;;6.75;100.00;99143.34;6245134;23;19911;-91
2023/11/24 19:35:15;;;;;;;;;;;;;;;6.74;100.00;99126.69;6217709;23;19961;-91
2023/11/24 19:37:40;;;;;;;;;;;;;;;6.77;100.00;99131.00;6253608;23;19919;-89
2023/11/24 19:40:08;;;;;;;;;;;;;;;6.72;100.00;99134.66;6246976;23;19908;-88
2023/11/24 19:45:20;;;;;;;;;;;;;;;6.75;100.00;99138.09;6247171;23;19914;-92
2023/11/24 19:47:50;;;;;;;;;;;;;;;6.74;100.00;99129.34;6245092;23;19912;-89
2023/11/24 19:50:15;;;;;;;;;;;;;;;6.74;100.00;99131.97;6222838;23;19915;-88
2023/11/24 19:52:40;;;;;;;;;;;;;;;6.71;100.00;99124.19;6248069;23;19990;-93
2023/11/24 19:55:06;;;;;;;;;;;;;;;6.72;100.00;99120.66;6220741;23;20231;-87
2023/11/24 19:57:33;;;;;;;;;;;;;;;6.71;100.00;99121.56;6221611;23;20370;-87
2023/11/24 19:59:59;;;;;;;;;;;;;;;6.69;100.00;99121.59;6219878;23;19955;-92
2023/11/24 20:02:24;;;;;;;;;;;;;;;6.72;100.00;99132.03;6220932;23;19938;-88
2023/11/24 20:04:55;;;;;;;;;;;;;;;6.68;100.00;99127.78;6218208;23;19912;-88
2023/11/24 20:07:21;;;;;;;;;;;;;;;6.69;100.00;99121.59;6245883;23;19912;-86
2023/11/24 20:09:47;;;;;;;;;;;;;;;6.68;100.00;99111.97;6245775;23;20377;-92
2023/11/24 20:12:12;;;;;;;;;;;;;;;6.81;100.00;99124.69;6247176;23;19919;-92